Anderson, Texas
Current Conditions -  °F | °C
As of 11:53 AM on Thursday 30 Oct 2014 (Local Time) from KCLL Reporting Station
Clear Clear  
Wind Chill: 70°   Ceiling: Unl
Heat Index: 70°   Visibility: 10mi
Dew Point: 48°   Wind: 6mph
Humidity: 46%   Direction: 90°E
Pressure: 30.16"   Gusts: NA
Location:  30.49°N, 95.99°W
Report Text: KCLL 301653Z 09005KT 10SM CLR 21/09 A3016 RMK AO2 SLP208 T02110089
Loading
Personal Weather Stations






























Interactive Weather Map
Tropical Storm Tracking
New forecast layout! Learn more

10-Day Weather Forecast

Advertisements
Track Severe Weather on mobile